This is the latest recevied weather packets stored in our database for station/object YM2KA-13. If no packets are shown the sender has not sent any weather packets the latest 1 day(s).
| Time | Temp. | Humidity | Pressure | Rain* | Wind** | Luminosity | Snow |
|---|---|---|---|---|---|---|---|
| 1778089425 | 11.11° C | 62% | 1015.8 hPa | 0 mm | - | - | - |
| 1778087029 | 11.67° C | 59% | 1015.3 hPa | 0 mm | - | - | - |
| 1778085222 | 12.78° C | 55% | 1015.1 hPa | 0 mm | - | - | - |
| 1778084624 | 12.78° C | 56% | 1015.1 hPa | 0 mm | - | - | - |
| 1778084025 | 13.33° C | 55% | 1015 hPa | 0 mm | - | - | - |
| 1778082826 | 12.78° C | 56% | 1014.9 hPa | 0 mm | - | - | - |
| 1778082745 | 12.78° C | 56% | 1014.9 hPa | 0 mm | - | - | - |
| 1778079831 | 13.33° C | 56% | 1014.7 hPa | 0 mm | - | - | - |
| 1778077426 | 13.33° C | 57% | 1014.8 hPa | 0 mm | - | - | - |
| 1778075629 | 13.33° C | 58% | 1014.7 hPa | 0 mm | - | - | - |
| 1778073822 | 13.33° C | 58% | 1014.8 hPa | 0 mm | - | - | - |
| 1778072848 | 13.33° C | 57% | 1014.7 hPa | 0 mm | - | - | - |
| 1778072624 | 13.33° C | 58% | 1014.8 hPa | 0 mm | - | - | - |
| 1778071427 | 12.78° C | 61% | 1014.9 hPa | 0 mm | - | - | - |
| 1778071041 | 12.22° C | 62% | 1014.9 hPa | 0 mm | - | - | - |
| 1778070827 | 12.22° C | 62% | 1014.9 hPa | 0 mm | - | - | - |
| 1778070229 | 12.22° C | 61% | 1014.9 hPa | 0 mm | - | - | - |
| 1778070148 | 12.78° C | 60% | 1015 hPa | 0 mm | - | - | - |
| 1778069630 | 12.78° C | 59% | 1015 hPa | 0 mm | - | - | - |
| 1778069244 | 12.78° C | 60% | 1015 hPa | 0 mm | - | - | - |
| 1778068422 | 12.78° C | 60% | 1015.1 hPa | 0 mm | - | - | - |
| 1778068341 | 12.78° C | 60% | 1015.1 hPa | 0 mm | - | - | - |
| 1778065651 | 12.78° C | 60% | 1015.3 hPa | 0 mm | - | - | - |
| 1778065427 | 12.78° C | 60% | 1015.4 hPa | 0 mm | - | - | - |
| 1778064230 | 12.78° C | 59% | 1015.4 hPa | 0 mm | - | - | - |
* Rain latest hour (hover to see other rain measurements)
** Current wind speed in m/s (hover to see current wind gust speed)